Airfield :
LOGIN :

Register | Disclaimer

   EN    FR    IT 

 










Legend :    VFR   Marginal VFR   IFR   Intensive IFR   Very Intensive IFR
Visi :
Ceiling :
>= 8 km
>= 3000ft
5 to 8 km
1000 to 3000 ft
1500m to 5 km
500 to 1000 ft
800 to 1500m
200 to 500 ft
< 800m
< 200 ft
Symbols :   Thunderstorms  Fog  Heavy snow  Heavy precipitations  Wind > 20 kt
SIGMETs :     Misc.  Thunderstorms  Icing  Turbulence  Mountain Waves  Volcanic Ashes






- Airport Elevation : 443 ft
- IATA code : SQQ


EYSA - Siauliai

CURRENT METAR :
  • 270650Z 13003KT 8000 2100S FEW001 08/08 Q1028 NOSIG

EXPIRED METARs :
  • 270620Z 10004KT 0450 0400S R14L/0750N FG NSC 07/06 Q1028 NOSIG
  • 270550Z VRB02KT 0350 0300S R14L/0550N FG NSC 05/05 Q1027 BECMG 9000
  • 270520Z 11002KT 0300 R14L/0600N FG NSC 03/03 Q1027 BECMG 9000
  • 270450Z 10001KT 0450 0400S R14L/0600D FG NSC 03/03 Q1027 BECMG 9000
  • 270420Z 09001KT 0800 R14L/1600D FG NSC 04/04 Q1027 NOSIG
  • 270350Z VRB01KT 3400 0550S PRFG BR NSC 03/03 Q1027 TEMPO 0900 FG

TAF TAF EYSA
Valid from the 27 at 06:00 until the 27 at 15:00 UTC


270524Z 2706/2715 VRB05KT 5000 MIFG BR SCT005
TEMPO 2706/2708 0800 FG VV002
BECMG 2708/2709 9000 NSW NSC



MET'MAP, your aeronautical weather chart ! - Copyright ORBIFLY December 2007 - Disclaimer

ORBIFLY MET'MAP TEAM :

Programming & Development : Alexandra Zaïnal
Concept & original design : Baudouin d'Aumeries
Assistance for programming : Marc-Olivier Méhu
Technical & hardware support : Manuel Goepfert

Contact : metmap@orbifly.com




SOURCES & CREDITS :

   NOAA